Time;durP1;ratioP1;P1;durP2;ratioP2;P2;SDS_P1;SDS_P2;PMS_P1;PMS_P2;Temp;Humidity;BMP_temperature;BMP_pressure;BME280_temperature;BME280_humidity;BME280_pressure;Samples;Min_cycle;Max_cycle;Signal;HPM_P1;HPM_P2
2022/11/23 00:00:57;;;;;;;30.13;17.20;;;;;;;;;;6253987;22;20008;-82
2022/11/23 00:03:23;;;;;;;31.52;16.85;;;;;;;;;;6253376;22;20011;-83
2022/11/23 00:05:49;;;;;;;31.35;16.85;;;;;;;;;;6253128;22;20014;-83
2022/11/23 00:08:15;;;;;;;31.33;16.42;;;;;;;;;;6253577;22;20003;-83
2022/11/23 00:10:41;;;;;;;33.45;17.90;;;;;;;;;;6253796;22;20031;-83
2022/11/23 00:13:07;;;;;;;31.55;16.33;;;;;;;;;;6281073;22;20026;-84
2022/11/23 00:15:34;;;;;;;33.35;17.95;;;;;;;;;;6280714;22;20481;-83
2022/11/23 00:18:01;;;;;;;28.92;16.75;;;;;;;;;;6282301;22;20000;-84
2022/11/23 00:20:27;;;;;;;30.45;18.05;;;;;;;;;;6283024;22;20003;-83
2022/11/23 00:22:53;;;;;;;36.40;18.63;;;;;;;;;;6282328;22;20004;-83
2022/11/23 00:25:19;;;;;;;32.33;17.02;;;;;;;;;;6282300;22;20010;-83
2022/11/23 00:27:45;;;;;;;31.27;18.17;;;;;;;;;;6281614;22;20004;-84
2022/11/23 00:30:11;;;;;;;33.63;17.90;;;;;;;;;;6280927;22;20755;-83
2022/11/23 00:32:37;;;;;;;30.92;16.88;;;;;;;;;;6254183;22;19999;-83
2022/11/23 00:35:03;;;;;;;33.53;17.08;;;;;;;;;;6255983;22;20545;-83
2022/11/23 00:37:29;;;;;;;35.72;18.48;;;;;;;;;;6256883;22;20196;-84
2022/11/23 00:39:55;;;;;;;34.72;17.90;;;;;;;;;;6283200;22;19996;-83
2022/11/23 00:42:22;;;;;;;29.67;16.75;;;;;;;;;;6253022;22;20003;-84
2022/11/23 00:44:48;;;;;;;32.65;17.33;;;;;;;;;;6280695;22;20107;-83
2022/11/23 00:47:14;;;;;;;32.20;17.17;;;;;;;;;;6256639;22;20006;-84
2022/11/23 00:49:40;;;;;;;32.65;17.85;;;;;;;;;;6280569;22;19996;-83
2022/11/23 00:52:06;;;;;;;31.33;16.38;;;;;;;;;;6253747;22;20399;-83
2022/11/23 00:54:32;;;;;;;29.70;17.38;;;;;;;;;;6281162;22;19999;-83
2022/11/23 00:56:58;;;;;;;35.35;18.38;;;;;;;;;;6280426;22;20026;-84
2022/11/23 00:59:24;;;;;;;31.83;17.95;;;;;;;;;;6280490;22;20011;-84
2022/11/23 01:01:50;;;;;;;34.40;18.42;;;;;;;;;;6252456;22;19999;-83
2022/11/23 01:04:16;;;;;;;32.60;17.75;;;;;;;;;;6279653;22;20011;-83
2022/11/23 01:06:42;;;;;;;33.08;18.08;;;;;;;;;;6279655;22;20008;-83
2022/11/23 01:09:13;;;;;;;34.53;18.88;;;;;;;;;;6253344;22;20059;-83
2022/11/23 01:11:39;;;;;;;35.72;17.80;;;;;;;;;;6279966;22;20340;-83
2022/11/23 01:14:05;;;;;;;36.90;18.63;;;;;;;;;;6253196;22;20420;-82
2022/11/23 01:16:32;;;;;;;33.72;18.33;;;;;;;;;;6280118;22;20003;-82
2022/11/23 01:18:59;;;;;;;32.45;18.65;;;;;;;;;;6279221;22;20442;-82
2022/11/23 01:21:26;;;;;;;32.40;18.35;;;;;;;;;;6252625;22;20004;-83
2022/11/23 01:23:52;;;;;;;32.42;18.30;;;;;;;;;;6279672;22;20071;-83
2022/11/23 01:26:19;;;;;;;35.15;18.67;;;;;;;;;;6280957;22;20010;-83
2022/11/23 01:28:45;;;;;;;34.60;17.42;;;;;;;;;;6280217;22;20012;-83
2022/11/23 01:31:13;;;;;;;37.38;19.95;;;;;;;;;;6279204;22;20000;-84
2022/11/23 01:33:39;;;;;;;35.28;18.25;;;;;;;;;;6279977;22;20026;-82
2022/11/23 01:36:25;;;;;;;34.08;18.42;;;;;;;;;;6280574;22;20500;-83
2022/11/23 01:38:51;;;;;;;37.47;18.27;;;;;;;;;;6282268;22;19999;-82
2022/11/23 01:41:21;;;;;;;34.97;18.23;;;;;;;;;;6254432;22;20014;-83
2022/11/23 01:43:48;;;;;;;36.05;18.50;;;;;;;;;;6281266;22;20023;-84
2022/11/23 01:46:14;;;;;;;29.55;17.20;;;;;;;;;;6253521;22;20422;-83
2022/11/23 01:48:43;;;;;;;33.78;18.02;;;;;;;;;;6281719;22;20004;-82
2022/11/23 01:51:11;;;;;;;35.60;18.25;;;;;;;;;;6281865;22;20056;-83
2022/11/23 01:53:38;;;;;;;32.35;17.33;;;;;;;;;;6281745;22;20007;-83
2022/11/23 01:56:05;;;;;;;38.53;20.48;;;;;;;;;;6254120;22;19996;-83
2022/11/23 01:58:33;;;;;;;34.38;18.58;;;;;;;;;;6254049;22;20015;-82
2022/11/23 02:00:59;;;;;;;34.83;18.90;;;;;;;;;;6253825;22;20094;-82
2022/11/23 02:03:25;;;;;;;32.83;18.98;;;;;;;;;;6255125;22;20095;-82
2022/11/23 02:05:58;;;;;;;35.92;18.25;;;;;;;;;;6282123;22;20015;-83
2022/11/23 02:08:24;;;;;;;38.53;19.02;;;;;;;;;;6255574;22;20004;-83
2022/11/23 02:10:51;;;;;;;33.75;17.70;;;;;;;;;;6255348;22;20008;-83
2022/11/23 02:13:17;;;;;;;40.97;19.60;;;;;;;;;;6281593;22;20454;-83
2022/11/23 02:15:44;;;;;;;36.40;17.88;;;;;;;;;;6254497;22;20000;-82
2022/11/23 02:18:12;;;;;;;36.03;19.05;;;;;;;;;;6281254;22;20007;-82
2022/11/23 02:20:39;;;;;;;36.78;18.42;;;;;;;;;;6282026;22;20007;-84
2022/11/23 02:23:08;;;;;;;38.78;19.67;;;;;;;;;;6281533;22;20000;-82
2022/11/23 02:25:43;;;;;;;34.40;18.58;;;;;;;;;;6280146;22;20010;-83
2022/11/23 02:28:21;;;;;;;33.92;18.08;;;;;;;;;;6280743;22;20027;-83
2022/11/23 02:30:48;;;;;;;31.58;16.17;;;;;;;;;;6280047;22;20049;-83
2022/11/23 02:33:14;;;;;;;35.10;17.23;;;;;;;;;;6253347;22;20004;-82
2022/11/23 02:35:48;;;;;;;31.48;17.45;;;;;;;;;;6253905;22;20420;-82
2022/11/23 02:38:14;;;;;;;32.95;17.52;;;;;;;;;;6281062;22;20008;-83
2022/11/23 02:40:40;;;;;;;37.33;18.52;;;;;;;;;;6252993;22;20443;-83
2022/11/23 02:43:06;;;;;;;35.90;16.55;;;;;;;;;;6254456;22;20006;-83
2022/11/23 02:45:36;;;;;;;31.08;16.13;;;;;;;;;;6282978;22;20015;-84
2022/11/23 02:48:02;;;;;;;33.95;17.27;;;;;;;;;;6254147;22;20015;-84
2022/11/23 02:50:28;;;;;;;34.97;17.65;;;;;;;;;;6253934;22;20443;-83
2022/11/23 02:52:54;;;;;;;35.33;17.30;;;;;;;;;;6254984;22;20007;-83
2022/11/23 02:55:20;;;;;;;35.17;18.40;;;;;;;;;;6254436;22;20024;-84
2022/11/23 02:57:46;;;;;;;32.03;16.85;;;;;;;;;;6254336;22;20095;-85
2022/11/23 03:00:12;;;;;;;34.42;17.90;;;;;;;;;;6253963;22;20098;-83
2022/11/23 03:02:38;;;;;;;37.30;18.75;;;;;;;;;;6253008;22;20095;-83
2022/11/23 03:05:05;;;;;;;37.28;18.88;;;;;;;;;;6280310;22;20339;-83
2022/11/23 03:07:31;;;;;;;35.42;18.45;;;;;;;;;;6253018;22;20444;-83
2022/11/23 03:09:57;;;;;;;35.42;18.00;;;;;;;;;;6252730;22;20000;-83
2022/11/23 03:12:23;;;;;;;38.28;19.40;;;;;;;;;;6252102;22;20036;-83
2022/11/23 03:14:49;;;;;;;35.40;16.92;;;;;;;;;;6251713;22;20004;-83
2022/11/23 03:17:15;;;;;;;34.20;19.02;;;;;;;;;;6281472;22;20027;-85
2022/11/23 03:19:41;;;;;;;33.35;17.08;;;;;;;;;;6279756;22;20015;-84
2022/11/23 03:22:07;;;;;;;35.75;18.15;;;;;;;;;;6280759;22;20000;-85
2022/11/23 03:24:33;;;;;;;33.30;16.75;;;;;;;;;;6281351;22;19996;-83
2022/11/23 03:26:59;;;;;;;35.33;17.58;;;;;;;;;;6281752;22;19999;-85
2022/11/23 03:29:25;;;;;;;31.90;15.57;;;;;;;;;;6282636;22;20082;-82
2022/11/23 03:31:52;;;;;;;35.20;17.13;;;;;;;;;;6283365;22;20086;-84
2022/11/23 03:34:18;;;;;;;29.67;16.23;;;;;;;;;;6256294;22;20040;-84
2022/11/23 03:36:44;;;;;;;35.40;16.95;;;;;;;;;;6255457;22;19995;-84
2022/11/23 03:39:10;;;;;;;33.38;17.83;;;;;;;;;;6255631;22;20012;-83
2022/11/23 03:41:36;;;;;;;39.22;17.30;;;;;;;;;;6255258;22;20007;-83
2022/11/23 03:44:03;;;;;;;35.20;16.02;;;;;;;;;;6281920;22;20000;-83
2022/11/23 03:46:29;;;;;;;35.08;16.90;;;;;;;;;;6283000;22;20000;-84
2022/11/23 03:48:55;;;;;;;29.52;16.45;;;;;;;;;;6280440;22;20009;-83
2022/11/23 03:51:21;;;;;;;36.20;16.00;;;;;;;;;;6253024;22;20011;-82
2022/11/23 03:53:47;;;;;;;40.88;17.83;;;;;;;;;;6254932;22;20090;-83
2022/11/23 03:56:13;;;;;;;31.00;16.38;;;;;;;;;;6255324;22;20007;-84
2022/11/23 03:58:39;;;;;;;32.70;16.23;;;;;;;;;;6282253;22;20003;-84
2022/11/23 04:01:05;;;;;;;35.50;17.98;;;;;;;;;;6281269;22;20297;-82
2022/11/23 04:03:31;;;;;;;31.67;16.45;;;;;;;;;;6280139;22;19999;-83
2022/11/23 04:05:57;;;;;;;35.65;17.30;;;;;;;;;;6282016;22;19999;-83
2022/11/23 04:08:23;;;;;;;33.60;16.30;;;;;;;;;;6281526;22;20002;-85
2022/11/23 04:10:49;;;;;;;34.70;18.33;;;;;;;;;;6282215;22;20002;-81
2022/11/23 04:13:15;;;;;;;33.83;15.90;;;;;;;;;;6281267;22;19996;-82
2022/11/23 04:15:41;;;;;;;32.50;17.15;;;;;;;;;;6253731;22;20008;-84
2022/11/23 04:18:07;;;;;;;33.08;17.58;;;;;;;;;;6255282;22;20007;-83
2022/11/23 04:20:33;;;;;;;30.42;15.88;;;;;;;;;;6252545;22;20043;-82
2022/11/23 04:23:00;;;;;;;34.47;16.75;;;;;;;;;;6254573;22;20008;-82
2022/11/23 04:25:26;;;;;;;30.10;16.80;;;;;;;;;;6279841;22;20062;-84
2022/11/23 04:27:52;;;;;;;32.58;17.42;;;;;;;;;;6279718;22;20003;-83
2022/11/23 04:30:18;;;;;;;33.85;17.50;;;;;;;;;;6254153;22;20310;-83
2022/11/23 04:32:44;;;;;;;31.25;17.65;;;;;;;;;;6278453;22;20078;-83
2022/11/23 04:35:11;;;;;;;30.35;16.80;;;;;;;;;;6276861;22;20006;-83
2022/11/23 04:37:37;;;;;;;32.03;15.80;;;;;;;;;;6252644;22;20074;-83
2022/11/23 04:40:03;;;;;;;28.33;15.13;;;;;;;;;;6253970;22;19999;-83
2022/11/23 04:42:29;;;;;;;30.00;15.07;;;;;;;;;;6253634;22;20000;-83
2022/11/23 04:44:56;;;;;;;32.72;16.83;;;;;;;;;;6286290;22;20039;-83
2022/11/23 04:47:23;;;;;;;28.42;14.27;;;;;;;;;;6254550;22;20006;-86
2022/11/23 04:49:49;;;;;;;29.73;16.27;;;;;;;;;;6253492;22;20031;-82
2022/11/23 04:52:15;;;;;;;33.25;17.80;;;;;;;;;;6282236;22;20019;-83
2022/11/23 04:54:41;;;;;;;32.00;16.70;;;;;;;;;;6279380;22;20004;-85
2022/11/23 04:57:07;;;;;;;30.58;16.92;;;;;;;;;;6279127;22;20004;-85
2022/11/23 04:59:33;;;;;;;31.13;15.93;;;;;;;;;;6280471;22;20026;-85
2022/11/23 05:01:59;;;;;;;28.88;15.85;;;;;;;;;;6252464;22;20440;-85
2022/11/23 05:04:25;;;;;;;30.45;15.40;;;;;;;;;;6250348;22;20014;-84
2022/11/23 05:06:51;;;;;;;33.65;15.98;;;;;;;;;;6252389;22;20071;-86
2022/11/23 05:09:18;;;;;;;34.45;14.70;;;;;;;;;;6248594;22;20090;-85
2022/11/23 05:11:44;;;;;;;30.80;15.35;;;;;;;;;;6250969;22;19992;-85
2022/11/23 05:14:10;;;;;;;31.90;16.52;;;;;;;;;;6279134;22;19996;-85
2022/11/23 05:16:36;;;;;;;30.27;15.65;;;;;;;;;;6278165;22;19992;-84
2022/11/23 05:19:02;;;;;;;30.55;15.82;;;;;;;;;;6278532;22;20014;-83
2022/11/23 05:21:28;;;;;;;31.60;15.85;;;;;;;;;;6282574;22;20284;-84
2022/11/23 05:23:54;;;;;;;33.80;16.35;;;;;;;;;;6283855;22;20004;-86
2022/11/23 05:26:20;;;;;;;29.67;15.02;;;;;;;;;;6255200;22;20061;-84
2022/11/23 05:28:46;;;;;;;36.53;17.55;;;;;;;;;;6282205;22;20004;-83
2022/11/23 05:31:13;;;;;;;34.75;17.70;;;;;;;;;;6255441;22;20003;-84
2022/11/23 05:33:39;;;;;;;35.33;17.40;;;;;;;;;;6292705;22;19984;-83
2022/11/23 05:36:05;;;;;;;34.67;17.95;;;;;;;;;;6300751;22;19996;-83
2022/11/23 05:38:31;;;;;;;33.75;18.55;;;;;;;;;;6274133;22;20008;-84
2022/11/23 05:40:57;;;;;;;36.60;18.50;;;;;;;;;;6275187;22;20051;-82
2022/11/23 05:43:23;;;;;;;36.63;17.95;;;;;;;;;;6264671;22;20003;-83
2022/11/23 05:45:49;;;;;;;37.08;18.50;;;;;;;;;;6283873;22;20011;-85
2022/11/23 05:48:15;;;;;;;33.08;17.42;;;;;;;;;;6283453;22;20440;-84
2022/11/23 05:50:41;;;;;;;29.90;16.75;;;;;;;;;;6281564;22;20007;-84
2022/11/23 05:53:08;;;;;;;38.45;16.75;;;;;;;;;;6282465;22;20000;-85
2022/11/23 05:55:34;;;;;;;38.35;17.77;;;;;;;;;;6281313;22;20074;-83
2022/11/23 05:58:00;;;;;;;34.22;17.70;;;;;;;;;;6282637;22;19999;-84
2022/11/23 06:00:27;;;;;;;35.47;18.08;;;;;;;;;;6282964;22;20061;-86
2022/11/23 06:02:57;;;;;;;36.70;18.08;;;;;;;;;;6289704;22;19984;-83
2022/11/23 06:05:23;;;;;;;34.00;17.23;;;;;;;;;;6273273;22;20069;-83
2022/11/23 06:07:52;;;;;;;32.53;15.38;;;;;;;;;;6270307;22;20004;-83
2022/11/23 06:10:18;;;;;;;31.98;16.10;;;;;;;;;;6294520;22;20004;-85
2022/11/23 06:12:45;;;;;;;37.03;18.65;;;;;;;;;;6278874;22;20069;-86
2022/11/23 06:15:11;;;;;;;37.28;17.70;;;;;;;;;;6276302;22;20004;-85
2022/11/23 06:17:37;;;;;;;34.70;17.10;;;;;;;;;;6275398;22;19996;-85
2022/11/23 06:20:04;;;;;;;34.83;16.88;;;;;;;;;;6277182;22;20027;-85
2022/11/23 06:22:30;;;;;;;34.47;16.98;;;;;;;;;;6279356;22;20026;-85
2022/11/23 06:24:56;;;;;;;32.10;16.70;;;;;;;;;;6254154;22;20432;-85
2022/11/23 06:27:22;;;;;;;30.63;16.20;;;;;;;;;;6254679;22;20744;-86
2022/11/23 06:29:48;;;;;;;32.33;15.57;;;;;;;;;;6251794;22;20007;-86
2022/11/23 06:32:14;;;;;;;30.13;15.98;;;;;;;;;;6278903;22;20054;-85
2022/11/23 06:34:40;;;;;;;31.25;17.45;;;;;;;;;;6260699;22;19999;-85
2022/11/23 06:37:06;;;;;;;29.92;15.57;;;;;;;;;;6262004;22;20035;-86
2022/11/23 06:39:32;;;;;;;31.98;16.13;;;;;;;;;;6258117;22;20008;-86
2022/11/23 06:41:58;;;;;;;31.15;15.15;;;;;;;;;;6253384;22;20012;-86
2022/11/23 06:44:24;;;;;;;31.73;16.00;;;;;;;;;;6254853;22;20065;-85
2022/11/23 06:46:50;;;;;;;28.20;14.15;;;;;;;;;;6252745;22;20035;-86
2022/11/23 06:49:18;;;;;;;28.75;14.73;;;;;;;;;;6279468;22;20288;-86
2022/11/23 06:51:45;;;;;;;33.17;15.98;;;;;;;;;;6252666;22;20000;-86
2022/11/23 06:54:11;;;;;;;33.58;15.30;;;;;;;;;;6278309;22;20018;-86
2022/11/23 06:56:37;;;;;;;30.88;15.50;;;;;;;;;;6251180;22;20083;-86
2022/11/23 06:59:03;;;;;;;30.60;15.20;;;;;;;;;;6250660;22;20008;-85
2022/11/23 07:01:30;;;;;;;30.52;16.42;;;;;;;;;;6250552;22;20027;-86
2022/11/23 07:03:56;;;;;;;30.35;15.73;;;;;;;;;;6281293;22;20043;-85
2022/11/23 07:06:22;;;;;;;27.88;14.55;;;;;;;;;;6278701;22;20012;-86
2022/11/23 07:08:48;;;;;;;24.85;14.23;;;;;;;;;;6278600;22;20443;-86
2022/11/23 07:11:14;;;;;;;27.95;15.60;;;;;;;;;;6251408;22;20000;-86
2022/11/23 07:13:41;;;;;;;28.55;14.32;;;;;;;;;;6251553;22;20057;-85
2022/11/23 07:16:07;;;;;;;31.05;16.42;;;;;;;;;;6251806;22;20000;-85
2022/11/23 07:18:33;;;;;;;28.42;15.60;;;;;;;;;;6252635;22;20003;-86
2022/11/23 07:20:59;;;;;;;28.30;15.73;;;;;;;;;;6280084;22;20003;-86
2022/11/23 07:23:25;;;;;;;29.02;15.65;;;;;;;;;;6278464;22;20000;-86
2022/11/23 07:25:52;;;;;;;24.48;13.32;;;;;;;;;;6250701;22;20007;-86
2022/11/23 07:28:18;;;;;;;28.30;13.82;;;;;;;;;;6250716;22;20004;-85
2022/11/23 07:30:44;;;;;;;24.92;12.43;;;;;;;;;;6250454;22;20010;-86
2022/11/23 07:33:11;;;;;;;22.90;11.88;;;;;;;;;;6276310;22;20003;-86
2022/11/23 07:35:38;;;;;;;23.30;10.27;;;;;;;;;;6250596;22;20208;-86
2022/11/23 07:38:06;;;;;;;21.02;9.95;;;;;;;;;;6249138;22;20329;-86
2022/11/23 07:40:33;;;;;;;22.40;10.18;;;;;;;;;;6249907;22;19999;-86
2022/11/23 07:43:00;;;;;;;20.95;11.73;;;;;;;;;;6250179;22;20082;-86
2022/11/23 07:45:26;;;;;;;24.88;11.18;;;;;;;;;;6248791;22;20038;-86
2022/11/23 07:47:59;;;;;;;19.77;10.80;;;;;;;;;;6251148;22;20012;-86
2022/11/23 07:50:25;;;;;;;20.65;10.85;;;;;;;;;;6250091;22;20471;-85
2022/11/23 07:52:51;;;;;;;19.55;10.63;;;;;;;;;;6278209;22;19992;-86
2022/11/23 07:55:17;;;;;;;22.85;10.88;;;;;;;;;;6276378;22;20382;-86
2022/11/23 07:57:43;;;;;;;22.42;11.13;;;;;;;;;;6250597;22;20039;-85
2022/11/23 08:00:09;;;;;;;20.58;11.43;;;;;;;;;;6250670;22;20310;-85
2022/11/23 08:02:35;;;;;;;17.83;11.73;;;;;;;;;;6249620;22;20000;-85
2022/11/23 08:05:01;;;;;;;22.80;10.23;;;;;;;;;;6249970;22;20003;-85
2022/11/23 08:07:27;;;;;;;20.95;10.18;;;;;;;;;;6248901;22;20432;-86
2022/11/23 08:09:53;;;;;;;18.23;9.48;;;;;;;;;;6250284;22;20015;-86
2022/11/23 08:12:20;;;;;;;17.65;9.38;;;;;;;;;;6250943;22;20057;-86
2022/11/23 08:14:46;;;;;;;19.05;9.40;;;;;;;;;;6248816;22;20091;-85
2022/11/23 08:17:12;;;;;;;17.58;8.82;;;;;;;;;;6278356;22;20664;-85
2022/11/23 08:19:38;;;;;;;19.85;9.10;;;;;;;;;;6250467;22;20007;-86
2022/11/23 08:22:04;;;;;;;17.15;9.18;;;;;;;;;;6277875;22;19996;-84
2022/11/23 08:24:30;;;;;;;16.92;8.30;;;;;;;;;;6250774;22;20004;-84
2022/11/23 08:26:56;;;;;;;22.20;10.88;;;;;;;;;;6251629;22;20039;-86
2022/11/23 08:29:22;;;;;;;15.23;8.10;;;;;;;;;;6259621;22;20003;-86
2022/11/23 08:31:48;;;;;;;17.65;9.18;;;;;;;;;;6281423;22;20002;-87
2022/11/23 08:34:14;;;;;;;16.60;9.38;;;;;;;;;;6278331;22;20088;-85
2022/11/23 08:36:40;;;;;;;18.27;8.43;;;;;;;;;;6281415;22;19999;-87
2022/11/23 08:39:07;;;;;;;17.45;8.95;;;;;;;;;;6250033;22;20060;-87
2022/11/23 08:41:33;;;;;;;16.58;8.63;;;;;;;;;;6250324;22;20011;-87
2022/11/23 08:43:59;;;;;;;16.08;8.00;;;;;;;;;;6248269;22;20028;-85
2022/11/23 08:46:25;;;;;;;15.05;7.60;;;;;;;;;;6249952;22;20014;-85
2022/11/23 08:48:51;;;;;;;16.88;8.07;;;;;;;;;;6249792;22;20062;-85
2022/11/23 08:51:21;;;;;;;16.10;8.68;;;;;;;;;;6277272;22;20034;-85
2022/11/23 08:53:47;;;;;;;16.13;8.18;;;;;;;;;;6278307;22;20000;-86
2022/11/23 08:56:13;;;;;;;17.10;7.82;;;;;;;;;;6251325;22;20000;-85
2022/11/23 08:58:39;;;;;;;16.50;8.25;;;;;;;;;;6250818;22;20004;-86
2022/11/23 09:01:09;;;;;;;18.00;8.98;;;;;;;;;;6249847;22;20347;-85
2022/11/23 09:03:35;;;;;;;17.50;9.00;;;;;;;;;;6249258;22;20098;-86
2022/11/23 09:06:01;;;;;;;17.88;9.38;;;;;;;;;;6250645;22;20034;-85
2022/11/23 09:08:28;;;;;;;17.27;10.15;;;;;;;;;;6277640;22;20031;-85
2022/11/23 09:10:54;;;;;;;15.50;8.90;;;;;;;;;;6252472;22;20061;-85
2022/11/23 09:13:20;;;;;;;18.27;9.25;;;;;;;;;;6249988;22;20030;-85
2022/11/23 09:15:46;;;;;;;17.40;8.95;;;;;;;;;;6248877;22;20467;-84
2022/11/23 09:18:12;;;;;;;14.93;8.77;;;;;;;;;;6252059;22;20258;-85
2022/11/23 09:20:43;;;;;;;12.90;7.88;;;;;;;;;;6250702;22;20031;-84
2022/11/23 09:23:09;;;;;;;14.07;8.18;;;;;;;;;;6282115;22;20344;-85
2022/11/23 09:25:35;;;;;;;15.35;8.55;;;;;;;;;;6279301;22;20000;-85
2022/11/23 09:28:03;;;;;;;16.45;8.32;;;;;;;;;;6278205;22;20002;-85
2022/11/23 09:30:29;;;;;;;15.45;7.85;;;;;;;;;;6255361;22;20007;-85
2022/11/23 09:32:58;;;;;;;13.82;7.97;;;;;;;;;;6251536;22;20006;-85
2022/11/23 09:35:24;;;;;;;13.93;8.32;;;;;;;;;;6280258;22;20007;-85
2022/11/23 09:38:00;;;;;;;10.75;6.80;;;;;;;;;;6281286;22;20035;-86
2022/11/23 09:40:33;;;;;;;14.23;7.82;;;;;;;;;;6281363;22;20000;-85
2022/11/23 09:43:18;;;;;;;15.35;6.85;;;;;;;;;;6282136;22;20050;-85
2022/11/23 09:45:47;;;;;;;14.32;6.63;;;;;;;;;;6253736;22;20042;-84
2022/11/23 09:48:19;;;;;;;12.85;7.25;;;;;;;;;;6280877;22;20023;-85
2022/11/23 09:50:56;;;;;;;12.50;7.13;;;;;;;;;;6251888;22;20451;-84
2022/11/23 09:53:29;;;;;;;11.63;6.57;;;;;;;;;;6253313;22;19999;-86
2022/11/23 09:55:55;;;;;;;12.18;6.57;;;;;;;;;;6254131;22;20000;-86
2022/11/23 09:58:22;;;;;;;10.43;5.70;;;;;;;;;;6283757;22;20006;-85
2022/11/23 10:01:05;;;;;;;12.57;7.15;;;;;;;;;;6255644;22;20034;-84
2022/11/23 10:03:34;;;;;;;9.52;5.93;;;;;;;;;;6282897;22;20000;-85
2022/11/23 10:06:03;;;;;;;11.07;5.93;;;;;;;;;;6282155;22;19999;-84
2022/11/23 10:08:38;;;;;;;12.10;6.78;;;;;;;;;;6254250;22;20400;-85
2022/11/23 10:11:23;;;;;;;12.05;6.88;;;;;;;;;;6279733;22;20000;-85
2022/11/23 10:13:56;;;;;;;11.43;6.13;;;;;;;;;;6281625;22;19996;-85
2022/11/23 10:16:32;;;;;;;9.82;5.82;;;;;;;;;;6254956;22;20003;-84
2022/11/23 10:19:04;;;;;;;13.35;5.80;;;;;;;;;;6253634;22;20067;-85
2022/11/23 10:21:36;;;;;;;11.70;5.70;;;;;;;;;;6253795;22;20090;-85
2022/11/23 10:24:23;;;;;;;11.27;5.90;;;;;;;;;;6282076;22;20010;-86
2022/11/23 10:26:50;;;;;;;13.30;6.55;;;;;;;;;;6281841;22;20000;-85
2022/11/23 10:29:22;;;;;;;11.00;5.28;;;;;;;;;;6254896;22;20019;-85
2022/11/23 10:31:49;;;;;;;9.70;5.85;;;;;;;;;;6253191;22;20093;-85
2022/11/23 10:34:25;;;;;;;11.70;6.03;;;;;;;;;;6252914;22;20332;-85
2022/11/23 10:36:51;;;;;;;9.55;5.53;;;;;;;;;;6255604;22;20010;-86
2022/11/23 10:39:22;;;;;;;9.48;5.43;;;;;;;;;;6254749;22;20007;-85
2022/11/23 10:41:49;;;;;;;12.10;5.60;;;;;;;;;;6282279;22;20317;-84
2022/11/23 10:44:18;;;;;;;9.18;5.40;;;;;;;;;;6283275;22;20077;-84
2022/11/23 10:46:44;;;;;;;10.82;5.70;;;;;;;;;;6253291;22;20330;-84
2022/11/23 10:49:21;;;;;;;11.18;5.55;;;;;;;;;;6283959;22;20016;-84
2022/11/23 10:51:51;;;;;;;11.05;6.32;;;;;;;;;;6253894;22;20432;-85
2022/11/23 10:54:23;;;;;;;12.13;5.63;;;;;;;;;;6280624;22;19996;-85
2022/11/23 10:56:50;;;;;;;10.10;5.63;;;;;;;;;;6253428;22;20003;-83
2022/11/23 10:59:30;;;;;;;9.05;5.40;;;;;;;;;;6255576;22;20008;-84
2022/11/23 11:02:14;;;;;;;9.35;5.15;;;;;;;;;;6280859;22;20011;-84
2022/11/23 11:04:41;;;;;;;8.85;5.20;;;;;;;;;;6280475;22;20008;-84
2022/11/23 11:07:30;;;;;;;7.97;4.82;;;;;;;;;;6252782;22;20010;-85
2022/11/23 11:10:00;;;;;;;7.43;4.35;;;;;;;;;;6259756;22;20017;-83
2022/11/23 11:12:27;;;;;;;7.88;4.20;;;;;;;;;;6251409;22;20000;-84
2022/11/23 11:15:01;;;;;;;8.63;4.88;;;;;;;;;;6252791;22;20007;-85
2022/11/23 11:17:32;;;;;;;9.05;5.18;;;;;;;;;;6253213;22;20011;-85
2022/11/23 11:19:59;;;;;;;7.85;4.38;;;;;;;;;;6254394;22;20006;-85
2022/11/23 11:22:32;;;;;;;9.30;5.60;;;;;;;;;;6282661;22;20015;-84
2022/11/23 11:24:58;;;;;;;9.70;5.32;;;;;;;;;;6284242;22;20019;-85
2022/11/23 11:27:26;;;;;;;8.82;5.18;;;;;;;;;;6257233;22;20000;-85
2022/11/23 11:29:58;;;;;;;7.97;4.88;;;;;;;;;;6282520;22;20038;-86
2022/11/23 11:32:38;;;;;;;9.50;5.40;;;;;;;;;;6284103;22;20022;-84
2022/11/23 11:35:16;;;;;;;7.90;4.80;;;;;;;;;;6259745;22;20008;-85
2022/11/23 11:37:43;;;;;;;8.45;5.18;;;;;;;;;;6257282;22;20007;-84
2022/11/23 11:40:29;;;;;;;7.85;4.70;;;;;;;;;;6283796;22;19992;-86
2022/11/23 11:43:06;;;;;;;10.82;5.25;;;;;;;;;;6292444;22;19995;-84
2022/11/23 11:45:36;;;;;;;8.27;4.97;;;;;;;;;;6296852;22;20031;-84
2022/11/23 11:48:06;;;;;;;8.88;5.63;;;;;;;;;;6266925;22;20094;-85
2022/11/23 11:50:35;;;;;;;10.90;5.25;;;;;;;;;;6265045;22;20015;-84
2022/11/23 11:53:11;;;;;;;9.65;5.65;;;;;;;;;;6286834;22;20051;-85
2022/11/23 11:55:57;;;;;;;7.53;5.18;;;;;;;;;;6252719;22;20011;-84
2022/11/23 11:58:27;;;;;;;8.77;5.00;;;;;;;;;;6280923;22;20026;-86
2022/11/23 12:00:59;;;;;;;9.15;5.03;;;;;;;;;;6281417;22;20007;-86
2022/11/23 12:03:40;;;;;;;7.40;4.80;;;;;;;;;;6252609;22;20049;-85
2022/11/23 12:06:13;;;;;;;7.53;4.38;;;;;;;;;;6279943;22;20435;-84
2022/11/23 12:08:59;;;;;;;8.20;4.72;;;;;;;;;;6280265;22;20003;-85
2022/11/23 12:11:25;;;;;;;7.43;4.40;;;;;;;;;;6252993;22;20004;-86
2022/11/23 12:13:53;;;;;;;7.82;4.30;;;;;;;;;;6290026;22;20327;-86
2022/11/23 12:16:28;;;;;;;6.93;4.13;;;;;;;;;;6288874;22;20400;-84
2022/11/23 12:18:54;;;;;;;9.95;4.82;;;;;;;;;;6261144;22;20049;-85
2022/11/23 12:21:35;;;;;;;7.07;4.82;;;;;;;;;;6283342;22;20008;-84
2022/11/23 12:24:17;;;;;;;8.90;5.07;;;;;;;;;;6279322;22;20000;-85
2022/11/23 12:26:43;;;;;;;7.05;4.13;;;;;;;;;;6281508;22;19999;-85
2022/11/23 12:29:18;;;;;;;7.82;4.47;;;;;;;;;;6253971;22;20015;-86
2022/11/23 12:31:47;;;;;;;7.18;4.22;;;;;;;;;;6252230;22;20049;-84
2022/11/23 12:34:13;;;;;;;8.02;4.13;;;;;;;;;;6282173;22;19995;-85
2022/11/23 12:36:49;;;;;;;8.90;4.55;;;;;;;;;;6283164;22;20554;-84
2022/11/23 12:39:23;;;;;;;7.32;4.40;;;;;;;;;;6254811;22;20098;-85
2022/11/23 12:42:08;;;;;;;7.40;4.15;;;;;;;;;;6253369;22;20321;-85
2022/11/23 12:44:34;;;;;;;6.10;3.90;;;;;;;;;;6251141;22;20011;-85
2022/11/23 12:47:10;;;;;;;8.13;4.65;;;;;;;;;;6252765;22;20031;-84
2022/11/23 12:49:43;;;;;;;7.00;3.85;;;;;;;;;;6278489;22;20061;-85
2022/11/23 12:52:28;;;;;;;8.32;4.10;;;;;;;;;;6280928;22;19996;-85
2022/11/23 12:55:07;;;;;;;6.68;3.60;;;;;;;;;;6252624;22;19999;-85
2022/11/23 12:57:46;;;;;;;9.18;4.15;;;;;;;;;;6280229;22;20000;-84
2022/11/23 13:00:19;;;;;;;7.95;4.30;;;;;;;;;;6251313;22;20336;-85
2022/11/23 13:02:54;;;;;;;10.07;4.53;;;;;;;;;;6280259;22;19999;-85
2022/11/23 13:05:27;;;;;;;9.00;4.82;;;;;;;;;;6252715;22;20000;-85
2022/11/23 13:08:18;;;;;;;8.18;4.53;;;;;;;;;;6279688;22;20028;-85
2022/11/23 13:11:11;;;;;;;6.22;3.88;;;;;;;;;;6279617;22;20021;-84
2022/11/23 13:13:48;;;;;;;8.90;4.03;;;;;;;;;;6247387;22;20004;-85
2022/11/23 13:16:30;;;;;;;6.22;3.78;;;;;;;;;;6280558;22;20003;-85
2022/11/23 13:18:59;;;;;;;6.47;3.55;;;;;;;;;;6250724;22;20004;-86
2022/11/23 13:21:30;;;;;;;6.60;3.42;;;;;;;;;;6253075;22;20462;-84
2022/11/23 13:23:56;;;;;;;7.00;3.28;;;;;;;;;;6251613;22;20014;-86
2022/11/23 13:26:23;;;;;;;8.10;4.05;;;;;;;;;;6279260;22;19996;-82
2022/11/23 13:28:50;;;;;;;9.35;4.18;;;;;;;;;;6278601;22;20003;-86
2022/11/23 13:31:16;;;;;;;6.68;3.88;;;;;;;;;;6281575;22;20030;-85
2022/11/23 13:33:47;;;;;;;7.05;3.95;;;;;;;;;;6253767;22;20008;-84
2022/11/23 13:36:29;;;;;;;8.35;4.50;;;;;;;;;;6255029;22;19999;-86
2022/11/23 13:38:55;;;;;;;5.97;3.50;;;;;;;;;;6255073;22;20007;-85
2022/11/23 13:41:47;;;;;;;11.57;4.25;;;;;;;;;;6281749;22;20004;-84
2022/11/23 13:44:20;;;;;;;8.27;5.33;;;;;;;;;;6105311;23;20065;-86
2022/11/23 13:47:01;;;;;;;7.28;4.25;;;;;;;;;;6105342;23;20065;-85
2022/11/23 13:49:32;;;;;;;8.35;4.65;;;;;;;;;;6131136;23;20538;-86
2022/11/23 13:52:16;;;;;;;7.32;3.78;;;;;;;;;;6129265;23;19998;-87
2022/11/23 13:54:52;;;;;;;6.50;3.78;;;;;;;;;;6129040;23;20070;-86
2022/11/23 13:57:18;;;;;;;7.22;3.35;;;;;;;;;;6130476;23;20006;-84
2022/11/23 13:59:44;;;;;;;7.05;4.00;;;;;;;;;;6129333;23;20006;-85
2022/11/23 14:02:11;;;;;;;7.70;3.60;;;;;;;;;;6129398;23;20036;-86
2022/11/23 14:04:37;;;;;;;7.43;3.83;;;;;;;;;;6129348;23;20323;-87
2022/11/23 14:07:03;;;;;;;7.10;4.10;;;;;;;;;;6109712;23;20012;-85
2022/11/23 14:09:32;;;;;;;7.15;3.90;;;;;;;;;;6110171;23;20030;-84
2022/11/23 14:12:01;;;;;;;7.63;4.18;;;;;;;;;;6129641;23;20006;-86
2022/11/23 14:14:35;;;;;;;7.30;4.05;;;;;;;;;;6130197;23;20002;-87
2022/11/23 14:17:01;;;;;;;6.70;4.05;;;;;;;;;;6105273;23;20009;-86
2022/11/23 14:19:46;;;;;;;6.95;4.05;;;;;;;;;;6129903;23;20006;-87
2022/11/23 14:22:12;;;;;;;9.30;5.15;;;;;;;;;;6223770;23;20015;-86
2022/11/23 14:24:45;;;;;;;7.68;4.18;;;;;;;;;;6251611;23;20004;-86
2022/11/23 14:27:27;;;;;;;8.65;5.03;;;;;;;;;;6251740;23;20028;-87
2022/11/23 14:30:04;;;;;;;9.15;4.55;;;;;;;;;;6251743;23;20027;-85
2022/11/23 14:32:39;;;;;;;8.52;5.05;;;;;;;;;;6225163;23;20004;-85
2022/11/23 14:35:05;;;;;;;8.80;5.00;;;;;;;;;;6252252;23;20003;-84